Thornbury, Canada
Current Conditions -  °F | °C
As of 10:00 PM on Friday 19 Dec 2014 (Local Time) from CYBN Reporting Station
Overcast Overcast  
Wind Chill: 21°   Ceiling: 6000
Heat Index: 21°   Visibility: 9mi
Dew Point: 18°   Wind: 2mph
Humidity: 86%   Direction: 360°N
Pressure: 30.26"   Gusts: NA
Location:  44.56°N, 80.45°W
Report Text: CYBN 200300Z AUTO 36002KT 9SM SCT015 OVC060 M06/M08 A3026 RMKSLP262
Loading
Personal Weather Stations






























Interactive Weather Map New forecast layout! Learn more

10-Day Weather Forecast

Advertisements
Track Severe Weather on mobile